createdAt,value
2022-08-25T00:00:43.814Z,27.39
2022-08-25T00:01:49.374Z,27.36
2022-08-25T00:02:55.613Z,27.34
2022-08-25T00:03:58.426Z,27.31
2022-08-25T00:05:00.015Z,27.26
2022-08-25T00:06:04.461Z,27.23
2022-08-25T00:07:06.494Z,27.20
2022-08-25T00:08:08.042Z,27.19
2022-08-25T00:09:09.918Z,27.18
2022-08-25T00:10:11.413Z,27.18
2022-08-25T00:11:17.096Z,27.17
2022-08-25T00:12:18.602Z,27.15
2022-08-25T00:13:20.174Z,27.14
2022-08-25T00:14:26.750Z,27.14
2022-08-25T00:15:28.847Z,27.14
2022-08-25T00:16:31.616Z,27.11
2022-08-25T00:17:33.117Z,27.09
2022-08-25T00:18:34.629Z,27.10
2022-08-25T00:19:36.507Z,27.08
2022-08-25T00:20:38.054Z,27.07
2022-08-25T00:21:45.157Z,27.06
2022-08-25T00:22:46.627Z,27.06
2022-08-25T00:23:48.162Z,27.06
2022-08-25T00:24:49.747Z,27.05
2022-08-25T00:25:51.325Z,27.04
2022-08-25T00:26:54.945Z,27.03
2022-08-25T00:27:57.123Z,27.01
2022-08-25T00:29:01.282Z,26.95
2022-08-25T00:30:04.492Z,26.92
2022-08-25T00:31:06.962Z,26.92
2022-08-25T00:32:08.544Z,26.92
2022-08-25T00:33:10.278Z,26.91
2022-08-25T00:34:13.276Z,26.91
2022-08-25T00:35:15.538Z,26.92
2022-08-25T00:36:19.101Z,26.93
2022-08-25T00:37:20.613Z,26.94
2022-08-25T00:38:22.197Z,26.92
2022-08-25T00:39:23.886Z,26.92
2022-08-25T00:40:25.762Z,26.91
2022-08-25T00:41:27.303Z,26.89
2022-08-25T00:42:28.843Z,26.89
2022-08-25T00:43:32.827Z,26.87
2022-08-25T00:44:35.381Z,26.86
2022-08-25T00:45:37.363Z,26.86
2022-08-25T00:46:43.336Z,26.84
2022-08-25T00:47:44.920Z,26.81
2022-08-25T00:48:47.423Z,26.79
2022-08-25T00:49:53.249Z,26.80
2022-08-25T00:50:54.759Z,26.80
2022-08-25T00:51:56.249Z,26.78
2022-08-25T00:52:58.860Z,26.77
2022-08-25T00:54:00.771Z,26.77
2022-08-25T00:55:08.127Z,26.73
2022-08-25T00:56:10.410Z,26.72
2022-08-25T00:57:12.931Z,26.68
2022-08-25T00:58:21.310Z,26.67
2022-08-25T00:59:22.890Z,26.66
2022-08-25T01:00:31.707Z,26.64
2022-08-25T01:01:33.396Z,26.62
2022-08-25T01:02:34.949Z,26.61
2022-08-25T01:03:36.539Z,26.60
2022-08-25T01:04:38.055Z,26.58
2022-08-25T01:05:40.888Z,26.57
2022-08-25T01:06:44.432Z,26.59
2022-08-25T01:07:46.070Z,26.56
2022-08-25T01:08:47.575Z,26.55
2022-08-25T01:09:49.324Z,26.54
2022-08-25T01:10:50.920Z,26.53
2022-08-25T01:11:52.916Z,26.53
2022-08-25T01:12:55.103Z,26.52
2022-08-25T01:13:56.668Z,26.52
2022-08-25T01:14:58.170Z,26.50
2022-08-25T01:15:59.953Z,26.48
2022-08-25T01:17:01.526Z,26.48
2022-08-25T01:18:03.119Z,26.47
2022-08-25T01:19:05.351Z,26.46
2022-08-25T01:20:07.246Z,26.46
2022-08-25T01:21:08.750Z,26.45
2022-08-25T01:22:12.409Z,26.44
2022-08-25T01:23:14.225Z,26.41
2022-08-25T01:24:28.784Z,26.40
2022-08-25T01:25:39.307Z,26.39
2022-08-25T01:26:40.869Z,26.38
2022-08-25T01:27:42.359Z,26.38
2022-08-25T01:29:04.355Z,26.38
2022-08-25T01:30:06.226Z,26.38
2022-08-25T01:31:24.158Z,26.39
2022-08-25T01:32:25.930Z,26.37
2022-08-25T01:33:27.484Z,26.37
2022-08-25T01:34:30.039Z,26.35
2022-08-25T01:35:33.191Z,26.33
2022-08-25T01:36:35.562Z,26.32
2022-08-25T01:37:37.167Z,26.28
2022-08-25T01:38:38.674Z,26.25
2022-08-25T01:39:40.191Z,26.20
2022-08-25T01:40:42.718Z,26.18
2022-08-25T01:42:07.060Z,26.18
2022-08-25T01:43:14.575Z,26.15
2022-08-25T01:44:16.756Z,26.15
2022-08-25T01:45:18.816Z,26.14
2022-08-25T01:46:20.402Z,26.11
2022-08-25T01:47:21.971Z,26.10
2022-08-25T01:48:23.474Z,26.07
2022-08-25T01:49:24.999Z,26.07
2022-08-25T01:50:26.525Z,26.08
2022-08-25T01:51:28.903Z,26.07
2022-08-25T01:52:34.510Z,26.06
2022-08-25T01:53:36.021Z,26.06
2022-08-25T01:54:37.610Z,26.05
2022-08-25T01:55:55.770Z,26.05
2022-08-25T01:56:57.924Z,26.08
2022-08-25T01:57:59.477Z,26.08
2022-08-25T01:59:01.035Z,26.07
2022-08-25T02:00:02.878Z,26.08
2022-08-25T02:01:15.767Z,26.07
2022-08-25T02:02:18.409Z,26.07
2022-08-25T02:03:20.269Z,26.05
2022-08-25T02:04:22.208Z,26.04
2022-08-25T02:05:24.007Z,26.05
2022-08-25T02:06:30.260Z,26.04
2022-08-25T02:07:32.006Z,26.01
2022-08-25T02:08:33.543Z,26.01
2022-08-25T02:09:35.351Z,25.98
2022-08-25T02:10:36.926Z,25.98
2022-08-25T02:11:38.982Z,25.97
2022-08-25T02:12:41.011Z,25.96
2022-08-25T02:13:42.519Z,25.95
2022-08-25T02:14:44.025Z,25.93
2022-08-25T02:15:46.270Z,25.92
2022-08-25T02:16:48.929Z,25.93
2022-08-25T02:17:50.539Z,25.92
2022-08-25T02:18:53.035Z,25.89
2022-08-25T02:19:57.003Z,25.89
2022-08-25T02:20:58.550Z,25.87
2022-08-25T02:22:00.131Z,25.87
2022-08-25T02:23:01.657Z,25.88
2022-08-25T02:24:03.432Z,25.88
2022-08-25T02:25:05.797Z,25.87
2022-08-25T02:26:07.693Z,25.88
2022-08-25T02:27:10.591Z,25.88
2022-08-25T02:28:12.799Z,25.88
2022-08-25T02:29:14.411Z,25.87
2022-08-25T02:30:16.019Z,25.89
2022-08-25T02:31:18.370Z,25.89
2022-08-25T02:32:19.882Z,25.88
2022-08-25T02:33:22.387Z,25.88
2022-08-25T02:34:23.952Z,25.89
2022-08-25T02:35:25.467Z,25.88
2022-08-25T02:36:26.961Z,25.85
2022-08-25T02:37:28.491Z,25.83
2022-08-25T02:38:29.974Z,25.83
2022-08-25T02:39:31.486Z,25.81
2022-08-25T02:40:33.059Z,25.81
2022-08-25T02:41:35.022Z,25.79
2022-08-25T02:42:36.550Z,25.79
2022-08-25T02:43:38.966Z,25.78
2022-08-25T02:44:41.139Z,25.77
2022-08-25T02:45:42.721Z,25.76
2022-08-25T02:46:44.287Z,25.76
2022-08-25T02:47:45.795Z,25.76
2022-08-25T02:48:47.530Z,25.73
2022-08-25T02:49:49.048Z,25.75
2022-08-25T02:50:53.759Z,25.72
2022-08-25T02:51:55.382Z,25.72
2022-08-25T02:52:57.198Z,25.72
2022-08-25T02:53:59.070Z,25.68
2022-08-25T02:55:00.853Z,25.68
2022-08-25T02:56:02.655Z,25.67
2022-08-25T02:57:04.383Z,25.66
2022-08-25T02:58:06.236Z,25.65
2022-08-25T02:59:07.842Z,25.63
2022-08-25T03:00:10.014Z,25.62
2022-08-25T03:01:14.573Z,25.62
2022-08-25T03:02:16.754Z,25.60
2022-08-25T03:03:18.575Z,25.58
2022-08-25T03:04:20.275Z,25.56
2022-08-25T03:05:22.193Z,25.53
2022-08-25T03:06:24.115Z,25.53
2022-08-25T03:07:25.915Z,25.53
2022-08-25T03:08:27.405Z,25.51
2022-08-25T03:09:28.989Z,25.49
2022-08-25T03:10:31.716Z,25.50
2022-08-25T03:11:33.283Z,25.47
2022-08-25T03:12:35.513Z,25.48
2022-08-25T03:13:37.254Z,25.46
2022-08-25T03:14:39.235Z,25.47
2022-08-25T03:15:42.629Z,25.44
2022-08-25T03:16:46.321Z,25.45
2022-08-25T03:17:50.649Z,25.46
2022-08-25T03:18:52.327Z,25.45
2022-08-25T03:19:53.942Z,25.44
2022-08-25T03:20:55.427Z,25.44
2022-08-25T03:21:57.530Z,25.45
2022-08-25T03:22:59.123Z,25.43
2022-08-25T03:24:00.618Z,25.41
2022-08-25T03:25:24.033Z,25.41
2022-08-25T03:26:44.779Z,25.42
2022-08-25T03:27:46.334Z,25.41
2022-08-25T03:28:47.879Z,25.40
2022-08-25T03:29:50.037Z,25.37
2022-08-25T03:30:55.804Z,25.35
2022-08-25T03:31:58.968Z,25.35
2022-08-25T03:33:00.583Z,25.34
2022-08-25T03:34:02.115Z,25.34
2022-08-25T03:35:03.655Z,25.34
2022-08-25T03:36:05.599Z,25.35
2022-08-25T03:37:08.532Z,25.34
2022-08-25T03:38:10.027Z,25.31
2022-08-25T03:39:11.613Z,25.32
2022-08-25T03:40:15.480Z,25.30
2022-08-25T03:41:21.200Z,25.28
2022-08-25T03:42:22.814Z,25.28
2022-08-25T03:43:24.344Z,25.27
2022-08-25T03:44:25.854Z,25.25
2022-08-25T03:45:27.476Z,25.24
2022-08-25T03:46:30.182Z,25.24
2022-08-25T03:47:31.722Z,25.21
2022-08-25T03:48:33.270Z,25.20
2022-08-25T03:49:34.775Z,25.19
2022-08-25T03:50:36.427Z,25.18
2022-08-25T03:51:40.442Z,25.16
2022-08-25T03:52:42.854Z,25.15
2022-08-25T03:53:44.433Z,25.14
2022-08-25T03:54:45.912Z,25.13
2022-08-25T03:55:47.572Z,25.13
2022-08-25T03:56:49.087Z,25.13
2022-08-25T03:57:51.137Z,25.10
2022-08-25T03:58:52.777Z,25.09
2022-08-25T03:59:54.253Z,25.10
2022-08-25T04:00:56.796Z,25.09
2022-08-25T04:01:58.641Z,25.08
2022-08-25T04:03:00.179Z,25.08
2022-08-25T04:04:01.830Z,25.07
2022-08-25T04:05:03.614Z,25.06
2022-08-25T04:06:05.700Z,25.05
2022-08-25T04:07:07.757Z,25.04
2022-08-25T04:08:09.332Z,25.03
2022-08-25T04:09:11.443Z,25.00
2022-08-25T04:10:12.967Z,24.98
2022-08-25T04:11:15.871Z,24.95
2022-08-25T04:12:17.347Z,24.94
2022-08-25T04:13:20.721Z,24.95
2022-08-25T04:14:23.409Z,24.94
2022-08-25T04:15:28.585Z,24.95
2022-08-25T04:16:32.413Z,24.93
2022-08-25T04:17:34.018Z,24.93
2022-08-25T04:18:35.997Z,24.91
2022-08-25T04:19:38.283Z,24.91
2022-08-25T04:20:44.642Z,24.90
2022-08-25T04:21:48.265Z,24.88
2022-08-25T04:22:49.749Z,24.85
2022-08-25T04:23:51.417Z,24.85
2022-08-25T04:24:52.925Z,24.84
2022-08-25T04:25:54.404Z,24.81
2022-08-25T04:26:56.354Z,24.80
2022-08-25T04:27:57.899Z,24.74
2022-08-25T04:29:00.139Z,24.73
2022-08-25T04:30:01.795Z,24.70
2022-08-25T04:31:05.766Z,24.70
2022-08-25T04:32:08.100Z,24.67
2022-08-25T04:33:09.730Z,24.64
2022-08-25T04:34:14.784Z,24.64
2022-08-25T04:35:32.418Z,24.63
2022-08-25T04:36:33.963Z,24.63
2022-08-25T04:37:35.466Z,24.63
2022-08-25T04:38:37.414Z,24.64
2022-08-25T04:39:38.943Z,24.63
2022-08-25T04:40:40.535Z,24.62
2022-08-25T04:41:42.050Z,24.63
2022-08-25T04:42:44.968Z,24.62
2022-08-25T04:43:49.815Z,24.54
2022-08-25T04:44:51.327Z,24.63
2022-08-25T04:45:52.971Z,24.63
2022-08-25T04:46:54.547Z,24.61
2022-08-25T04:48:00.772Z,24.61
2022-08-25T04:49:02.583Z,24.61
2022-08-25T04:50:04.386Z,24.61
2022-08-25T04:51:06.296Z,24.61
2022-08-25T04:52:07.845Z,24.59
2022-08-25T04:53:16.261Z,24.58
2022-08-25T04:54:21.527Z,24.58
2022-08-25T04:55:23.970Z,24.55
2022-08-25T04:56:26.130Z,24.55
2022-08-25T04:57:28.281Z,24.54
2022-08-25T04:58:29.814Z,24.53
2022-08-25T04:59:31.334Z,24.53
2022-08-25T05:00:34.337Z,24.52
2022-08-25T05:01:35.945Z,24.50
2022-08-25T05:02:37.755Z,24.50
2022-08-25T05:03:39.286Z,24.50
2022-08-25T05:04:40.917Z,24.50
2022-08-25T05:05:42.492Z,24.50
2022-08-25T05:06:43.973Z,24.50
2022-08-25T05:07:47.691Z,24.48
2022-08-25T05:08:49.625Z,24.46
2022-08-25T05:09:51.456Z,24.47
2022-08-25T05:10:54.572Z,24.46
2022-08-25T05:11:56.828Z,24.44
2022-08-25T05:12:58.794Z,24.43
2022-08-25T05:14:00.608Z,24.43
2022-08-25T05:15:22.112Z,24.42
2022-08-25T05:16:23.985Z,24.42
2022-08-25T05:17:25.598Z,24.40
2022-08-25T05:18:28.698Z,24.39
2022-08-25T05:19:30.268Z,24.40
2022-08-25T05:20:31.821Z,24.40
2022-08-25T05:21:33.493Z,24.38
2022-08-25T05:22:35.002Z,24.38
2022-08-25T05:23:36.709Z,24.38
2022-08-25T05:24:38.258Z,24.39
2022-08-25T05:25:40.202Z,24.39
2022-08-25T05:26:41.989Z,24.40
2022-08-25T05:27:43.860Z,24.42
2022-08-25T05:28:45.339Z,24.43
2022-08-25T05:29:47.004Z,24.43
2022-08-25T05:30:51.207Z,24.43
2022-08-25T05:31:53.650Z,24.42
2022-08-25T05:32:55.270Z,24.44
2022-08-25T05:33:57.213Z,24.47
2022-08-25T05:34:59.403Z,24.48
2022-08-25T05:36:01.003Z,24.48
2022-08-25T05:37:04.510Z,24.49
2022-08-25T05:38:06.191Z,24.51
2022-08-25T05:39:07.828Z,24.52
2022-08-25T05:40:10.311Z,24.53
2022-08-25T05:41:13.235Z,24.56
2022-08-25T05:42:14.811Z,24.56
2022-08-25T05:43:16.405Z,24.58
2022-08-25T05:44:20.940Z,24.59
2022-08-25T05:45:22.976Z,24.60
2022-08-25T05:46:24.674Z,24.62
2022-08-25T05:47:26.223Z,24.54
2022-08-25T05:48:27.761Z,24.66
2022-08-25T05:49:29.248Z,24.68
2022-08-25T05:50:30.767Z,24.70
2022-08-25T05:51:32.296Z,24.71
2022-08-25T05:52:33.813Z,24.76
2022-08-25T05:53:35.446Z,24.76
2022-08-25T05:54:36.931Z,24.79
2022-08-25T05:55:38.457Z,24.82
2022-08-25T05:56:40.266Z,24.84
2022-08-25T05:57:41.818Z,24.85
2022-08-25T05:58:43.339Z,24.90
2022-08-25T05:59:44.822Z,24.91
2022-08-25T06:00:46.453Z,24.95
2022-08-25T06:02:06.504Z,24.97
2022-08-25T06:03:08.062Z,25.01
2022-08-25T06:04:09.673Z,25.03
2022-08-25T06:05:11.731Z,25.06
2022-08-25T06:06:13.487Z,25.08
2022-08-25T06:07:15.102Z,25.11
2022-08-25T06:08:16.734Z,25.13
2022-08-25T06:09:18.211Z,25.15
2022-08-25T06:10:20.215Z,25.19
2022-08-25T06:11:21.684Z,25.21
2022-08-25T06:12:23.288Z,25.25
2022-08-25T06:13:26.942Z,25.28
2022-08-25T06:14:30.432Z,25.30
2022-08-25T06:15:32.123Z,25.32
2022-08-25T06:16:33.708Z,25.37
2022-08-25T06:17:35.428Z,25.39
2022-08-25T06:18:36.990Z,25.43
2022-08-25T06:19:39.746Z,25.46
2022-08-25T06:20:42.930Z,25.49
2022-08-25T06:21:44.461Z,25.52
2022-08-25T06:22:46.080Z,25.56
2022-08-25T06:23:49.232Z,25.59
2022-08-25T06:24:50.751Z,25.62
2022-08-25T06:25:52.534Z,25.66
2022-08-25T06:26:54.033Z,25.70
2022-08-25T06:27:55.586Z,25.72
2022-08-25T06:28:57.104Z,25.75
2022-08-25T06:29:58.638Z,25.79
2022-08-25T06:31:06.492Z,25.83
2022-08-25T06:32:08.879Z,25.86
2022-08-25T06:33:10.467Z,25.89
2022-08-25T06:34:12.858Z,25.91
2022-08-25T06:35:16.424Z,25.96
2022-08-25T06:36:19.140Z,25.99
2022-08-25T06:37:25.091Z,26.02
2022-08-25T06:38:27.104Z,26.05
2022-08-25T06:39:28.735Z,26.09
2022-08-25T06:40:30.252Z,26.11
2022-08-25T06:41:36.656Z,26.15
2022-08-25T06:42:38.740Z,26.18
2022-08-25T06:43:47.348Z,26.20
2022-08-25T06:44:50.626Z,26.23
2022-08-25T06:45:52.155Z,26.27
2022-08-25T06:46:53.881Z,26.32
2022-08-25T06:47:57.193Z,26.34
2022-08-25T06:48:59.104Z,26.38
2022-08-25T06:50:00.579Z,26.43
2022-08-25T06:51:05.342Z,26.45
2022-08-25T06:52:06.957Z,26.48
2022-08-25T06:53:08.493Z,26.52
2022-08-25T06:54:13.132Z,26.55
2022-08-25T06:55:15.342Z,26.58
2022-08-25T06:56:17.241Z,26.60
2022-08-25T06:57:18.752Z,26.63
2022-08-25T06:58:20.330Z,26.66
2022-08-25T06:59:21.940Z,26.70
2022-08-25T07:00:23.476Z,26.73
2022-08-25T07:01:32.415Z,26.76
2022-08-25T07:02:35.335Z,26.79
2022-08-25T07:03:37.211Z,26.81
2022-08-25T07:04:38.915Z,26.86
2022-08-25T07:05:43.768Z,26.89
2022-08-25T07:06:45.732Z,26.92
2022-08-25T07:07:47.451Z,26.95
2022-08-25T07:08:48.991Z,26.99
2022-08-25T07:09:50.507Z,27.04
2022-08-25T07:10:52.103Z,27.07
2022-08-25T07:11:54.207Z,27.12
2022-08-25T07:12:55.990Z,27.15
2022-08-25T07:13:57.654Z,27.17
2022-08-25T07:15:18.980Z,27.20
2022-08-25T07:16:21.058Z,27.25
2022-08-25T07:17:23.599Z,27.27
2022-08-25T07:18:26.946Z,27.32
2022-08-25T07:19:28.535Z,27.37
2022-08-25T07:20:31.408Z,27.40
2022-08-25T07:21:35.646Z,27.43
2022-08-25T07:22:37.854Z,27.45
2022-08-25T07:23:39.944Z,27.46
2022-08-25T07:24:41.658Z,27.51
2022-08-25T07:25:43.130Z,27.55
2022-08-25T07:26:46.580Z,27.57
2022-08-25T07:27:48.099Z,27.59
2022-08-25T07:28:50.723Z,27.61
2022-08-25T07:29:53.999Z,27.66
2022-08-25T07:31:00.848Z,27.72
2022-08-25T07:32:02.770Z,27.74
2022-08-25T07:33:06.497Z,27.75
2022-08-25T07:34:26.967Z,27.78
2022-08-25T07:35:37.448Z,27.83
2022-08-25T07:36:39.434Z,27.88
2022-08-25T07:37:49.154Z,27.91
2022-08-25T07:38:51.419Z,27.95
2022-08-25T07:39:53.022Z,27.98
2022-08-25T07:41:00.802Z,28.02
2022-08-25T07:42:02.400Z,28.04
2022-08-25T07:43:05.060Z,28.07
2022-08-25T07:44:08.970Z,28.12
2022-08-25T07:45:11.292Z,28.16
2022-08-25T07:46:13.338Z,28.20
2022-08-25T07:47:15.983Z,28.24
2022-08-25T07:48:19.760Z,28.28
2022-08-25T07:49:23.144Z,28.32
2022-08-25T07:50:25.244Z,28.35
2022-08-25T07:52:33.527Z,28.44
2022-08-25T07:53:35.115Z,28.48
2022-08-25T07:54:38.230Z,28.52
2022-08-25T07:55:41.431Z,28.56
2022-08-25T07:56:44.171Z,28.61
2022-08-25T07:57:48.950Z,28.65
2022-08-25T07:58:56.124Z,28.67
2022-08-25T07:59:58.846Z,28.70
2022-08-25T08:01:00.357Z,28.72
2022-08-25T08:02:02.051Z,28.77
2022-08-25T08:03:04.419Z,28.80
2022-08-25T08:04:06.010Z,28.84
2022-08-25T08:05:09.699Z,28.86
2022-08-25T08:06:12.031Z,28.91
2022-08-25T08:07:13.714Z,28.94
2022-08-25T08:08:22.022Z,28.98
2022-08-25T08:09:31.131Z,29.02
2022-08-25T08:10:53.818Z,29.08
2022-08-25T08:11:58.634Z,29.13
2022-08-25T08:13:00.533Z,29.17
2022-08-25T08:14:02.766Z,29.21
2022-08-25T08:15:04.548Z,29.25
2022-08-25T08:16:13.291Z,29.28
2022-08-25T08:17:15.032Z,29.34
2022-08-25T08:18:18.376Z,29.38
2022-08-25T08:19:22.993Z,29.41
2022-08-25T08:20:24.880Z,29.46
2022-08-25T08:21:30.868Z,29.49
2022-08-25T08:22:33.014Z,29.53
2022-08-25T08:23:34.581Z,29.56
2022-08-25T08:24:44.705Z,29.63
2022-08-25T08:25:56.732Z,29.69
2022-08-25T08:26:59.411Z,29.72
2022-08-25T08:28:01.015Z,29.75
2022-08-25T08:29:02.803Z,29.79
2022-08-25T08:30:04.862Z,29.82
2022-08-25T08:31:06.529Z,29.85
2022-08-25T08:32:13.484Z,29.87
2022-08-25T08:33:15.043Z,29.89
2022-08-25T08:34:16.535Z,29.92
2022-08-25T08:35:18.959Z,29.96
2022-08-25T08:36:21.469Z,30.01
2022-08-25T08:37:28.118Z,30.04
2022-08-25T08:38:29.769Z,30.09
2022-08-25T08:39:31.268Z,30.14
2022-08-25T08:40:34.719Z,30.18
2022-08-25T08:42:11.264Z,30.21
2022-08-25T08:43:18.825Z,30.26
2022-08-25T08:44:29.022Z,30.31
2022-08-25T08:45:31.251Z,30.32
2022-08-25T08:46:43.695Z,30.36
2022-08-25T08:48:20.515Z,30.37
2022-08-25T08:49:28.621Z,30.43
2022-08-25T08:50:33.801Z,30.43
2022-08-25T08:51:36.195Z,30.47
2022-08-25T08:52:38.264Z,30.51
2022-08-25T08:54:00.092Z,30.50
2022-08-25T08:55:02.687Z,30.48
2022-08-25T08:56:11.626Z,30.52
2022-08-25T08:57:16.665Z,30.49
2022-08-25T08:58:18.882Z,30.52
2022-08-25T08:59:28.896Z,30.55
2022-08-25T09:00:32.235Z,30.58
2022-08-25T09:01:36.102Z,30.63
2022-08-25T09:02:51.997Z,30.68
2022-08-25T09:03:58.919Z,30.74
2022-08-25T09:05:04.669Z,30.81
2022-08-25T09:06:26.477Z,30.87
2022-08-25T09:07:43.214Z,30.91
2022-08-25T09:08:59.068Z,30.92
2022-08-25T09:10:00.766Z,30.92
2022-08-25T09:11:20.808Z,30.97
2022-08-25T09:12:27.752Z,31.05
2022-08-25T09:13:34.118Z,31.11
2022-08-25T09:15:02.786Z,31.16
2022-08-25T09:16:43.790Z,31.23
2022-08-25T09:17:57.959Z,31.32
2022-08-25T09:19:05.627Z,31.41
2022-08-25T09:20:25.814Z,31.49
2022-08-25T09:21:33.953Z,31.57
2022-08-25T09:22:53.764Z,31.59
2022-08-25T09:24:04.095Z,31.70
2022-08-25T09:25:21.957Z,31.67
2022-08-25T09:26:44.761Z,31.61
2022-08-25T09:27:46.455Z,31.63
2022-08-25T09:28:52.323Z,31.66
2022-08-25T09:30:05.353Z,31.71
2022-08-25T09:31:13.839Z,31.77
2022-08-25T09:32:15.373Z,31.84
2022-08-25T09:33:26.259Z,31.97
2022-08-25T09:34:31.046Z,32.03
2022-08-25T09:35:33.535Z,32.06
2022-08-25T09:36:37.853Z,32.07
2022-08-25T09:37:39.504Z,32.12
2022-08-25T09:38:41.341Z,32.13
2022-08-25T09:39:43.223Z,32.15
2022-08-25T09:40:46.060Z,32.14
2022-08-25T09:41:52.106Z,32.21
2022-08-25T09:42:57.649Z,32.26
2022-08-25T09:43:59.644Z,32.30
2022-08-25T09:45:01.179Z,32.34
2022-08-25T09:46:03.897Z,32.45
2022-08-25T09:47:08.282Z,32.50
2022-08-25T09:48:25.359Z,32.58
2022-08-25T09:49:30.863Z,32.67
2022-08-25T09:50:35.064Z,32.71
2022-08-25T09:51:42.833Z,32.74
2022-08-25T09:52:45.867Z,32.80
2022-08-25T09:53:56.868Z,32.92
2022-08-25T09:55:21.632Z,32.94
2022-08-25T09:56:27.264Z,33.06
2022-08-25T09:57:29.164Z,33.19
2022-08-25T09:58:30.798Z,33.27
2022-08-25T09:59:35.735Z,33.25
2022-08-25T10:00:38.199Z,33.33
2022-08-25T10:01:47.567Z,33.37
2022-08-25T10:03:06.950Z,33.39
2022-08-25T10:04:17.715Z,33.31
2022-08-25T10:05:23.326Z,33.45
2022-08-25T10:06:25.446Z,33.53
2022-08-25T10:07:32.277Z,33.57
2022-08-25T10:08:36.406Z,33.63
2022-08-25T10:09:39.712Z,33.66
2022-08-25T10:10:46.349Z,33.60
2022-08-25T10:11:48.764Z,33.45
2022-08-25T10:12:51.217Z,33.44
2022-08-25T10:13:56.398Z,33.38
2022-08-25T10:14:58.003Z,33.38
2022-08-25T10:16:20.579Z,33.41
2022-08-25T10:17:30.038Z,33.52
2022-08-25T10:18:31.605Z,33.73
2022-08-25T10:19:33.737Z,33.85
2022-08-25T10:20:35.444Z,34.01
2022-08-25T10:21:38.253Z,34.10
2022-08-25T10:22:40.286Z,34.11
2022-08-25T10:23:44.642Z,34.11
2022-08-25T10:24:46.551Z,34.15
2022-08-25T10:25:59.271Z,34.17
2022-08-25T10:27:13.550Z,34.14
2022-08-25T10:28:25.893Z,34.10
2022-08-25T10:29:45.711Z,34.03
2022-08-25T10:30:53.472Z,33.95
2022-08-25T10:31:56.758Z,33.99
2022-08-25T10:33:07.872Z,34.01
2022-08-25T10:34:12.307Z,33.98
2022-08-25T10:35:17.609Z,33.94
2022-08-25T10:36:41.305Z,33.94
2022-08-25T10:38:07.360Z,33.93
2022-08-25T10:39:34.234Z,33.94
2022-08-25T10:40:37.919Z,33.87
2022-08-25T10:41:53.426Z,33.92
2022-08-25T10:43:08.426Z,33.96
2022-08-25T10:44:34.656Z,33.91
2022-08-25T10:45:59.293Z,33.92
2022-08-25T10:47:40.375Z,33.91
2022-08-25T10:49:02.335Z,33.90
2022-08-25T10:50:14.832Z,33.87
2022-08-25T10:51:25.511Z,33.88
2022-08-25T10:52:47.830Z,33.88
2022-08-25T10:54:08.308Z,33.83
2022-08-25T10:55:20.336Z,33.85
2022-08-25T10:56:23.535Z,33.83
2022-08-25T10:57:25.132Z,33.79
2022-08-25T10:58:45.785Z,33.73
2022-08-25T10:59:53.410Z,33.71
2022-08-25T11:01:06.915Z,33.69
2022-08-25T11:02:11.386Z,33.75
2022-08-25T11:03:19.060Z,33.83
2022-08-25T11:04:29.791Z,33.92
2022-08-25T11:05:40.220Z,33.90
2022-08-25T11:06:51.399Z,33.90
2022-08-25T11:08:06.200Z,33.88
2022-08-25T11:09:11.126Z,33.87
2022-08-25T11:10:17.789Z,33.86
2022-08-25T11:11:25.713Z,33.85
2022-08-25T11:12:30.270Z,33.84
2022-08-25T11:13:37.958Z,33.84
2022-08-25T11:14:59.290Z,33.83
2022-08-25T11:16:17.188Z,33.83
2022-08-25T11:17:20.831Z,33.83
2022-08-25T11:18:22.897Z,33.80
2022-08-25T11:19:33.682Z,33.83
2022-08-25T11:20:41.372Z,33.80
2022-08-25T11:21:52.847Z,33.79
2022-08-25T11:23:04.576Z,33.84
2022-08-25T11:24:12.398Z,33.89
2022-08-25T11:25:21.588Z,33.90
2022-08-25T11:26:31.947Z,33.89
2022-08-25T11:27:49.116Z,33.85
2022-08-25T11:29:11.377Z,33.82
2022-08-25T11:30:14.561Z,33.85
2022-08-25T11:31:16.127Z,33.91
2022-08-25T11:32:18.774Z,33.97
2022-08-25T11:33:20.370Z,33.98
2022-08-25T11:34:24.257Z,34.01
2022-08-25T11:35:42.462Z,34.04
2022-08-25T11:36:49.205Z,34.07
2022-08-25T11:37:57.802Z,34.10
2022-08-25T11:39:37.677Z,34.10
2022-08-25T11:40:39.210Z,34.11
2022-08-25T11:41:49.152Z,34.13
2022-08-25T11:42:57.945Z,34.08
2022-08-25T11:44:02.273Z,34.14
2022-08-25T11:45:08.828Z,34.15
2022-08-25T11:46:27.810Z,34.20
2022-08-25T11:47:29.490Z,34.28
2022-08-25T11:48:42.764Z,34.30
2022-08-25T11:49:53.682Z,34.32
2022-08-25T11:50:55.279Z,34.36
2022-08-25T11:52:02.882Z,34.41
2022-08-25T11:53:26.540Z,34.47
2022-08-25T11:54:34.181Z,34.57
2022-08-25T11:55:51.998Z,34.58
2022-08-25T11:57:04.203Z,34.64
2022-08-25T11:58:24.218Z,34.70
2022-08-25T11:59:46.222Z,34.73
2022-08-25T12:00:48.123Z,34.79
2022-08-25T12:01:55.786Z,34.83
2022-08-25T12:03:01.307Z,34.87
2022-08-25T12:04:26.778Z,34.91
2022-08-25T12:05:32.378Z,34.89
2022-08-25T12:06:36.718Z,34.91
2022-08-25T12:07:47.387Z,34.92
2022-08-25T12:09:01.059Z,34.97
2022-08-25T12:10:05.762Z,35.01
2022-08-25T12:11:11.115Z,35.00
2022-08-25T12:12:31.374Z,35.00
2022-08-25T12:13:43.002Z,35.01
2022-08-25T12:14:45.491Z,35.06
2022-08-25T12:15:47.115Z,35.09
2022-08-25T12:16:51.480Z,35.12
2022-08-25T12:18:08.934Z,35.11
2022-08-25T12:19:30.242Z,35.10
2022-08-25T12:20:51.721Z,35.05
2022-08-25T12:21:54.617Z,35.02
2022-08-25T12:22:56.509Z,35.01
2022-08-25T12:24:04.913Z,35.03
2022-08-25T12:25:11.569Z,35.04
2022-08-25T12:26:18.879Z,35.05
2022-08-25T12:27:23.179Z,35.10
2022-08-25T12:28:40.478Z,35.10
2022-08-25T12:29:47.319Z,35.10
2022-08-25T12:30:50.712Z,35.15
2022-08-25T12:32:03.180Z,35.16
2022-08-25T12:33:25.198Z,35.18
2022-08-25T12:34:46.410Z,35.18
2022-08-25T12:35:53.803Z,35.19
2022-08-25T12:36:58.371Z,35.19
2022-08-25T12:38:02.971Z,35.20
2022-08-25T12:39:19.295Z,35.19
2022-08-25T12:40:35.574Z,35.20
2022-08-25T12:41:37.351Z,35.23
2022-08-25T12:42:39.745Z,35.25
2022-08-25T12:43:44.947Z,35.28
2022-08-25T12:44:47.929Z,35.30
2022-08-25T12:45:51.614Z,35.31
2022-08-25T12:47:08.118Z,35.34
2022-08-25T12:48:27.791Z,35.34
2022-08-25T12:49:29.943Z,35.34
2022-08-25T12:50:41.328Z,35.35
2022-08-25T12:51:48.689Z,35.35
2022-08-25T12:52:50.409Z,35.33
2022-08-25T12:53:53.394Z,35.34
2022-08-25T12:54:54.920Z,35.32
2022-08-25T12:55:59.905Z,35.30
2022-08-25T12:57:03.182Z,35.34
2022-08-25T12:58:06.675Z,35.36
2022-08-25T12:59:12.779Z,35.39
2022-08-25T13:01:32.842Z,35.44
2022-08-25T13:02:52.193Z,35.49
2022-08-25T13:04:12.471Z,35.54
2022-08-25T13:05:37.623Z,35.59
2022-08-25T13:06:41.904Z,35.64
2022-08-25T13:07:55.280Z,35.66
2022-08-25T13:08:56.951Z,35.69
2022-08-25T13:10:07.688Z,35.73
2022-08-25T13:11:10.843Z,35.76
2022-08-25T13:12:15.006Z,35.77
2022-08-25T13:13:34.387Z,35.79
2022-08-25T13:14:40.489Z,35.83
2022-08-25T13:15:46.938Z,35.84
2022-08-25T13:16:54.052Z,35.81
2022-08-25T13:17:55.563Z,35.81
2022-08-25T13:18:59.280Z,35.85
2022-08-25T13:20:19.209Z,35.89
2022-08-25T13:21:24.198Z,35.89
2022-08-25T13:22:25.899Z,35.88
2022-08-25T13:23:29.201Z,35.85
2022-08-25T13:24:40.585Z,35.83
2022-08-25T13:25:46.767Z,35.82
2022-08-25T13:26:52.340Z,35.76
2022-08-25T13:27:57.289Z,35.73
2022-08-25T13:29:20.145Z,35.65
2022-08-25T13:30:24.369Z,35.58
2022-08-25T13:31:29.033Z,35.55
2022-08-25T13:32:35.407Z,35.50
2022-08-25T13:33:37.386Z,35.49
2022-08-25T13:34:42.529Z,35.46
2022-08-25T13:35:47.938Z,35.43
2022-08-25T13:37:08.069Z,35.38
2022-08-25T13:38:13.387Z,35.39
2022-08-25T13:39:15.980Z,35.39
2022-08-25T13:40:27.845Z,35.36
2022-08-25T13:41:29.934Z,35.31
2022-08-25T13:42:36.588Z,35.30
2022-08-25T13:43:38.214Z,35.27
2022-08-25T13:44:40.035Z,35.29
2022-08-25T13:45:53.382Z,35.28
2022-08-25T13:47:13.738Z,35.30
2022-08-25T13:48:21.139Z,35.30
2022-08-25T13:49:25.330Z,35.26
2022-08-25T13:50:27.115Z,35.28
2022-08-25T13:51:31.351Z,35.26
2022-08-25T13:52:33.447Z,35.29
2022-08-25T13:53:35.044Z,35.30
2022-08-25T13:54:41.099Z,35.29
2022-08-25T13:55:53.171Z,35.30
2022-08-25T13:56:55.138Z,35.31
2022-08-25T13:57:57.799Z,35.29
2022-08-25T13:59:00.038Z,35.29
2022-08-25T14:00:04.139Z,35.29
2022-08-25T14:01:23.048Z,35.23
2022-08-25T14:02:45.194Z,35.18
2022-08-25T14:03:51.400Z,35.19